Skip Navigation LinksHome page > Weather > Current weather Skip Navigation Links

Current Weather

Benson, United Kingdom

For information only: do not use for flight planning or navigation.
Latest weather
Observation time Monday, October 18, 2021 9:50 PM BST
Local time Monday, October 18, 2021 10:09 PM BST
Flight conditions Low Instrument Meteorological Conditions
Winds
Wind direction South (180°)
Wind speed 8 mph
Visibility 1.8 mi.
Sky condition
Ceiling 300 ft. overcast
Cloud layer overcast 300 ft.
Temperature 61°F
Dewpoint 61°F
Altimeter 29.94 in.Hg
Derived measurements
Relative humidity 100%
Density altitude 405 ft.
Remarks
Fully automated report.
METAR EGUB 182050Z AUTO 18007KT 2900 // OVC003/// 16/16 Q1014

Settings

Location code

InnerDrive.Weather 4.0.6770.0 Release CLR 4.0.30319.42000
Copyright ©2018 Inner Drive Technology. All rights reserved. Portions Copyright ©1986-2018 David Braverman.

Find weather

Site navigation


Skip Navigation Links

Place info

Page info

PayPal - The safer, easier way to pay online!

Return home.

Copyright ©2021 Inner Drive Technology. Purveyors of fine, hand-crafted computer software. Page printed 2021-10-18T21:09:32 UTC.